sensor_id;sensor_type;location;lat;lon;timestamp;temperature;humidity
31661;DHT22;18267;52.234;7.444;2023-11-21T00:01:35;9.00;99.90
31661;DHT22;18267;52.234;7.444;2023-11-21T00:04:01;9.00;99.90
31661;DHT22;18267;52.234;7.444;2023-11-21T00:06:27;9.10;99.90
31661;DHT22;18267;52.234;7.444;2023-11-21T00:08:52;9.20;99.90
31661;DHT22;18267;52.234;7.444;2023-11-21T00:11:18;9.20;99.90
31661;DHT22;18267;52.234;7.444;2023-11-21T00:13:43;9.30;99.90
31661;DHT22;18267;52.234;7.444;2023-11-21T00:16:09;9.30;99.90
31661;DHT22;18267;52.234;7.444;2023-11-21T00:18:34;9.30;99.90
31661;DHT22;18267;52.234;7.444;2023-11-21T00:21:01;9.30;99.90
31661;DHT22;18267;52.234;7.444;2023-11-21T00:23:26;9.30;99.90
31661;DHT22;18267;52.234;7.444;2023-11-21T00:25:52;9.30;99.90
31661;DHT22;18267;52.234;7.444;2023-11-21T00:28:17;9.30;99.90
31661;DHT22;18267;52.234;7.444;2023-11-21T00:30:43;9.30;99.90
31661;DHT22;18267;52.234;7.444;2023-11-21T00:33:09;9.40;99.90
31661;DHT22;18267;52.234;7.444;2023-11-21T00:35:34;9.30;99.90
31661;DHT22;18267;52.234;7.444;2023-11-21T00:38:00;9.30;99.90
31661;DHT22;18267;52.234;7.444;2023-11-21T00:40:25;9.30;99.90
31661;DHT22;18267;52.234;7.444;2023-11-21T00:42:51;9.20;99.90
31661;DHT22;18267;52.234;7.444;2023-11-21T00:45:17;9.30;99.90
31661;DHT22;18267;52.234;7.444;2023-11-21T00:47:42;9.40;99.90
31661;DHT22;18267;52.234;7.444;2023-11-21T00:50:08;9.40;99.90
31661;DHT22;18267;52.234;7.444;2023-11-21T00:52:35;9.40;99.90
31661;DHT22;18267;52.234;7.444;2023-11-21T00:55:01;9.40;99.90
31661;DHT22;18267;52.234;7.444;2023-11-21T00:57:28;9.40;99.90
31661;DHT22;18267;52.234;7.444;2023-11-21T00:59:54;9.40;99.90
31661;DHT22;18267;52.234;7.444;2023-11-21T01:02:20;9.40;99.90
31661;DHT22;18267;52.234;7.444;2023-11-21T01:04:45;9.40;99.90
31661;DHT22;18267;52.234;7.444;2023-11-21T01:07:11;9.50;99.90
31661;DHT22;18267;52.234;7.444;2023-11-21T01:09:36;9.40;99.90
31661;DHT22;18267;52.234;7.444;2023-11-21T01:12:02;9.40;99.90
31661;DHT22;18267;52.234;7.444;2023-11-21T01:14:28;9.40;99.90
31661;DHT22;18267;52.234;7.444;2023-11-21T01:16:53;9.40;99.90
31661;DHT22;18267;52.234;7.444;2023-11-21T01:19:19;9.50;99.90
31661;DHT22;18267;52.234;7.444;2023-11-21T01:21:44;9.40;99.90
31661;DHT22;18267;52.234;7.444;2023-11-21T01:24:10;9.40;99.90
31661;DHT22;18267;52.234;7.444;2023-11-21T01:26:36;9.50;99.90
31661;DHT22;18267;52.234;7.444;2023-11-21T01:29:01;9.50;99.90
31661;DHT22;18267;52.234;7.444;2023-11-21T01:31:27;9.50;99.90
31661;DHT22;18267;52.234;7.444;2023-11-21T01:33:55;9.60;99.90
31661;DHT22;18267;52.234;7.444;2023-11-21T01:36:21;9.60;99.90
31661;DHT22;18267;52.234;7.444;2023-11-21T01:38:47;9.60;99.90
31661;DHT22;18267;52.234;7.444;2023-11-21T01:41:14;9.60;99.90
31661;DHT22;18267;52.234;7.444;2023-11-21T01:43:39;9.60;99.90
31661;DHT22;18267;52.234;7.444;2023-11-21T01:46:05;9.50;99.90
31661;DHT22;18267;52.234;7.444;2023-11-21T01:48:32;9.40;99.90
31661;DHT22;18267;52.234;7.444;2023-11-21T01:50:58;9.40;99.90
31661;DHT22;18267;52.234;7.444;2023-11-21T01:53:25;9.50;99.90
31661;DHT22;18267;52.234;7.444;2023-11-21T01:55:51;9.50;99.90
31661;DHT22;18267;52.234;7.444;2023-11-21T01:58:19;9.60;99.90
31661;DHT22;18267;52.234;7.444;2023-11-21T02:00:45;9.60;99.90
31661;DHT22;18267;52.234;7.444;2023-11-21T02:03:10;9.60;99.90
31661;DHT22;18267;52.234;7.444;2023-11-21T02:05:37;9.60;99.90
31661;DHT22;18267;52.234;7.444;2023-11-21T02:08:03;9.50;99.90
31661;DHT22;18267;52.234;7.444;2023-11-21T02:10:30;9.50;99.90
31661;DHT22;18267;52.234;7.444;2023-11-21T02:12:56;9.50;99.90
31661;DHT22;18267;52.234;7.444;2023-11-21T02:15:22;9.50;99.90
31661;DHT22;18267;52.234;7.444;2023-11-21T02:17:49;9.50;99.90
31661;DHT22;18267;52.234;7.444;2023-11-21T02:20:19;9.60;99.90
31661;DHT22;18267;52.234;7.444;2023-11-21T02:22:55;9.60;99.90
31661;DHT22;18267;52.234;7.444;2023-11-21T02:25:25;9.60;99.90
31661;DHT22;18267;52.234;7.444;2023-11-21T02:27:53;9.60;99.90
31661;DHT22;18267;52.234;7.444;2023-11-21T02:30:20;9.70;99.90
31661;DHT22;18267;52.234;7.444;2023-11-21T02:32:47;9.70;99.90
31661;DHT22;18267;52.234;7.444;2023-11-21T02:35:13;9.70;99.90
31661;DHT22;18267;52.234;7.444;2023-11-21T02:37:39;9.70;99.90
31661;DHT22;18267;52.234;7.444;2023-11-21T02:40:08;9.60;99.90
31661;DHT22;18267;52.234;7.444;2023-11-21T02:42:35;9.60;99.90
31661;DHT22;18267;52.234;7.444;2023-11-21T02:45:00;9.70;99.90
31661;DHT22;18267;52.234;7.444;2023-11-21T02:47:26;9.70;99.90
31661;DHT22;18267;52.234;7.444;2023-11-21T02:49:51;9.70;99.90
31661;DHT22;18267;52.234;7.444;2023-11-21T02:52:18;9.60;99.90
31661;DHT22;18267;52.234;7.444;2023-11-21T02:54:44;9.70;99.90
31661;DHT22;18267;52.234;7.444;2023-11-21T02:57:10;9.70;99.90
31661;DHT22;18267;52.234;7.444;2023-11-21T02:59:36;9.70;99.90
31661;DHT22;18267;52.234;7.444;2023-11-21T03:02:01;9.90;99.90
31661;DHT22;18267;52.234;7.444;2023-11-21T03:04:27;9.90;99.90
31661;DHT22;18267;52.234;7.444;2023-11-21T03:06:52;9.80;99.90
31661;DHT22;18267;52.234;7.444;2023-11-21T03:09:18;9.70;99.90
31661;DHT22;18267;52.234;7.444;2023-11-21T03:11:43;9.80;99.90
31661;DHT22;18267;52.234;7.444;2023-11-21T03:14:09;9.80;99.90
31661;DHT22;18267;52.234;7.444;2023-11-21T03:16:36;9.80;99.90
31661;DHT22;18267;52.234;7.444;2023-11-21T03:19:03;9.70;99.90
31661;DHT22;18267;52.234;7.444;2023-11-21T03:21:30;9.80;99.90
31661;DHT22;18267;52.234;7.444;2023-11-21T03:23:55;9.80;99.90
31661;DHT22;18267;52.234;7.444;2023-11-21T03:26:21;9.90;99.90
31661;DHT22;18267;52.234;7.444;2023-11-21T03:28:47;9.90;99.90
31661;DHT22;18267;52.234;7.444;2023-11-21T03:31:12;9.70;99.90
31661;DHT22;18267;52.234;7.444;2023-11-21T03:33:38;9.70;99.90
31661;DHT22;18267;52.234;7.444;2023-11-21T03:36:03;9.70;99.90
31661;DHT22;18267;52.234;7.444;2023-11-21T03:38:29;9.70;99.90
31661;DHT22;18267;52.234;7.444;2023-11-21T03:40:55;9.70;99.90
31661;DHT22;18267;52.234;7.444;2023-11-21T03:43:20;9.70;99.90
31661;DHT22;18267;52.234;7.444;2023-11-21T03:45:46;9.60;99.90
31661;DHT22;18267;52.234;7.444;2023-11-21T03:48:12;9.60;99.90
31661;DHT22;18267;52.234;7.444;2023-11-21T03:50:38;9.60;99.90
31661;DHT22;18267;52.234;7.444;2023-11-21T03:53:04;9.60;99.90
31661;DHT22;18267;52.234;7.444;2023-11-21T03:55:29;9.60;99.90
31661;DHT22;18267;52.234;7.444;2023-11-21T03:57:57;9.60;99.90
31661;DHT22;18267;52.234;7.444;2023-11-21T04:00:23;9.60;99.90
31661;DHT22;18267;52.234;7.444;2023-11-21T04:02:49;9.60;99.90
31661;DHT22;18267;52.234;7.444;2023-11-21T04:05:16;9.50;99.90
31661;DHT22;18267;52.234;7.444;2023-11-21T04:07:41;9.60;99.90
31661;DHT22;18267;52.234;7.444;2023-11-21T04:10:08;9.60;99.90
31661;DHT22;18267;52.234;7.444;2023-11-21T04:12:35;9.60;99.90
31661;DHT22;18267;52.234;7.444;2023-11-21T04:15:00;9.70;99.90
31661;DHT22;18267;52.234;7.444;2023-11-21T04:17:26;9.60;99.90
31661;DHT22;18267;52.234;7.444;2023-11-21T04:19:52;9.70;99.90
31661;DHT22;18267;52.234;7.444;2023-11-21T04:22:17;9.70;99.90
31661;DHT22;18267;52.234;7.444;2023-11-21T04:24:43;9.80;99.90
31661;DHT22;18267;52.234;7.444;2023-11-21T04:27:08;9.80;99.90
31661;DHT22;18267;52.234;7.444;2023-11-21T04:29:34;9.80;99.90
31661;DHT22;18267;52.234;7.444;2023-11-21T04:32:00;9.80;99.90
31661;DHT22;18267;52.234;7.444;2023-11-21T04:34:26;9.80;99.90
31661;DHT22;18267;52.234;7.444;2023-11-21T04:36:52;9.90;99.90
31661;DHT22;18267;52.234;7.444;2023-11-21T04:39:17;9.70;99.90
31661;DHT22;18267;52.234;7.444;2023-11-21T04:41:43;9.70;99.90
31661;DHT22;18267;52.234;7.444;2023-11-21T04:44:08;9.80;99.90
31661;DHT22;18267;52.234;7.444;2023-11-21T04:46:34;9.80;99.90
31661;DHT22;18267;52.234;7.444;2023-11-21T04:48:59;9.80;99.90
31661;DHT22;18267;52.234;7.444;2023-11-21T04:51:25;9.80;99.90
31661;DHT22;18267;52.234;7.444;2023-11-21T04:53:50;9.70;99.90
31661;DHT22;18267;52.234;7.444;2023-11-21T04:56:16;9.70;99.90
31661;DHT22;18267;52.234;7.444;2023-11-21T04:58:42;9.60;99.90
31661;DHT22;18267;52.234;7.444;2023-11-21T05:01:07;9.70;99.90
31661;DHT22;18267;52.234;7.444;2023-11-21T05:03:33;9.70;99.90
31661;DHT22;18267;52.234;7.444;2023-11-21T05:06:02;9.70;99.90
31661;DHT22;18267;52.234;7.444;2023-11-21T05:08:29;9.80;99.90
31661;DHT22;18267;52.234;7.444;2023-11-21T05:10:54;9.80;99.90
31661;DHT22;18267;52.234;7.444;2023-11-21T05:13:20;9.90;99.90
31661;DHT22;18267;52.234;7.444;2023-11-21T05:15:46;9.90;99.90
31661;DHT22;18267;52.234;7.444;2023-11-21T05:18:12;9.90;99.90
31661;DHT22;18267;52.234;7.444;2023-11-21T05:20:39;9.90;99.90
31661;DHT22;18267;52.234;7.444;2023-11-21T05:23:06;9.90;99.90
31661;DHT22;18267;52.234;7.444;2023-11-21T05:25:32;10.00;99.90
31661;DHT22;18267;52.234;7.444;2023-11-21T05:27:57;10.00;99.90
31661;DHT22;18267;52.234;7.444;2023-11-21T05:30:26;10.00;99.90
31661;DHT22;18267;52.234;7.444;2023-11-21T05:32:52;9.90;99.90
31661;DHT22;18267;52.234;7.444;2023-11-21T05:35:18;9.90;99.90
31661;DHT22;18267;52.234;7.444;2023-11-21T05:37:45;9.90;99.90
31661;DHT22;18267;52.234;7.444;2023-11-21T05:40:11;9.90;99.90
31661;DHT22;18267;52.234;7.444;2023-11-21T05:42:39;9.80;99.90
31661;DHT22;18267;52.234;7.444;2023-11-21T05:45:05;9.80;99.90
31661;DHT22;18267;52.234;7.444;2023-11-21T05:47:41;9.80;99.90
31661;DHT22;18267;52.234;7.444;2023-11-21T05:50:11;9.70;99.90
31661;DHT22;18267;52.234;7.444;2023-11-21T05:52:38;9.70;99.90
31661;DHT22;18267;52.234;7.444;2023-11-21T05:55:05;9.70;99.90
31661;DHT22;18267;52.234;7.444;2023-11-21T05:57:34;9.70;99.90
31661;DHT22;18267;52.234;7.444;2023-11-21T06:00:04;9.70;99.90
31661;DHT22;18267;52.234;7.444;2023-11-21T06:02:39;9.70;99.90
31661;DHT22;18267;52.234;7.444;2023-11-21T06:05:08;9.60;99.90
31661;DHT22;18267;52.234;7.444;2023-11-21T06:07:34;9.60;99.90
31661;DHT22;18267;52.234;7.444;2023-11-21T06:10:02;9.60;99.90
31661;DHT22;18267;52.234;7.444;2023-11-21T06:12:28;9.70;99.90
31661;DHT22;18267;52.234;7.444;2023-11-21T06:14:53;9.60;99.90
31661;DHT22;18267;52.234;7.444;2023-11-21T06:17:20;9.70;99.90
31661;DHT22;18267;52.234;7.444;2023-11-21T06:19:47;9.70;99.90
31661;DHT22;18267;52.234;7.444;2023-11-21T06:22:12;9.80;99.90
31661;DHT22;18267;52.234;7.444;2023-11-21T06:24:38;9.80;99.90
31661;DHT22;18267;52.234;7.444;2023-11-21T06:27:04;9.80;99.90
31661;DHT22;18267;52.234;7.444;2023-11-21T06:29:30;9.90;99.90
31661;DHT22;18267;52.234;7.444;2023-11-21T06:31:57;9.90;99.90
31661;DHT22;18267;52.234;7.444;2023-11-21T06:34:23;9.90;99.90
31661;DHT22;18267;52.234;7.444;2023-11-21T06:36:49;9.80;99.90
31661;DHT22;18267;52.234;7.444;2023-11-21T06:39:15;9.80;99.90
31661;DHT22;18267;52.234;7.444;2023-11-21T06:41:42;9.80;99.90
31661;DHT22;18267;52.234;7.444;2023-11-21T06:44:08;9.80;99.90
31661;DHT22;18267;52.234;7.444;2023-11-21T06:46:34;9.70;99.90
31661;DHT22;18267;52.234;7.444;2023-11-21T06:48:59;9.70;99.90
31661;DHT22;18267;52.234;7.444;2023-11-21T06:51:25;9.70;99.90
31661;DHT22;18267;52.234;7.444;2023-11-21T06:53:50;9.70;99.90
31661;DHT22;18267;52.234;7.444;2023-11-21T06:56:19;9.80;99.90
31661;DHT22;18267;52.234;7.444;2023-11-21T06:58:45;9.60;99.90
31661;DHT22;18267;52.234;7.444;2023-11-21T07:01:12;9.60;99.90
31661;DHT22;18267;52.234;7.444;2023-11-21T07:03:38;9.50;99.90
31661;DHT22;18267;52.234;7.444;2023-11-21T07:06:05;9.40;99.90
31661;DHT22;18267;52.234;7.444;2023-11-21T07:08:30;9.40;99.90
31661;DHT22;18267;52.234;7.444;2023-11-21T07:10:56;9.40;99.90
31661;DHT22;18267;52.234;7.444;2023-11-21T07:13:21;9.50;99.90
31661;DHT22;18267;52.234;7.444;2023-11-21T07:15:47;9.60;99.90
31661;DHT22;18267;52.234;7.444;2023-11-21T07:18:13;9.60;99.90
31661;DHT22;18267;52.234;7.444;2023-11-21T07:20:39;9.60;99.90
31661;DHT22;18267;52.234;7.444;2023-11-21T07:23:04;9.60;99.90
31661;DHT22;18267;52.234;7.444;2023-11-21T07:25:31;9.60;99.90
31661;DHT22;18267;52.234;7.444;2023-11-21T07:27:57;9.50;99.90
31661;DHT22;18267;52.234;7.444;2023-11-21T07:30:22;9.50;99.90
31661;DHT22;18267;52.234;7.444;2023-11-21T07:32:48;9.50;99.90
31661;DHT22;18267;52.234;7.444;2023-11-21T07:35:14;9.50;99.90
31661;DHT22;18267;52.234;7.444;2023-11-21T07:37:40;9.40;99.90
31661;DHT22;18267;52.234;7.444;2023-11-21T07:40:06;9.40;99.90
31661;DHT22;18267;52.234;7.444;2023-11-21T07:42:34;9.40;99.90
31661;DHT22;18267;52.234;7.444;2023-11-21T07:45:00;9.40;99.90
31661;DHT22;18267;52.234;7.444;2023-11-21T07:47:25;9.50;99.90
31661;DHT22;18267;52.234;7.444;2023-11-21T07:49:53;9.50;99.90
31661;DHT22;18267;52.234;7.444;2023-11-21T07:52:18;9.50;99.90
31661;DHT22;18267;52.234;7.444;2023-11-21T07:54:46;9.40;99.90
31661;DHT22;18267;52.234;7.444;2023-11-21T07:57:12;9.30;99.90
31661;DHT22;18267;52.234;7.444;2023-11-21T07:59:39;9.30;99.90
31661;DHT22;18267;52.234;7.444;2023-11-21T08:02:06;9.20;99.90
31661;DHT22;18267;52.234;7.444;2023-11-21T08:04:32;9.30;99.90
31661;DHT22;18267;52.234;7.444;2023-11-21T08:06:57;9.20;99.90
31661;DHT22;18267;52.234;7.444;2023-11-21T08:09:23;9.20;99.90
31661;DHT22;18267;52.234;7.444;2023-11-21T08:11:49;9.20;99.90
31661;DHT22;18267;52.234;7.444;2023-11-21T08:14:15;9.20;99.90
31661;DHT22;18267;52.234;7.444;2023-11-21T08:16:40;9.10;99.90
31661;DHT22;18267;52.234;7.444;2023-11-21T08:19:06;9.20;99.90
31661;DHT22;18267;52.234;7.444;2023-11-21T08:21:31;9.10;99.90
31661;DHT22;18267;52.234;7.444;2023-11-21T08:23:57;9.10;99.90
31661;DHT22;18267;52.234;7.444;2023-11-21T08:26:23;9.20;99.90
31661;DHT22;18267;52.234;7.444;2023-11-21T08:28:49;9.20;99.90
31661;DHT22;18267;52.234;7.444;2023-11-21T08:31:14;9.20;99.90
31661;DHT22;18267;52.234;7.444;2023-11-21T08:33:41;9.20;99.90
31661;DHT22;18267;52.234;7.444;2023-11-21T08:36:07;9.20;99.90
31661;DHT22;18267;52.234;7.444;2023-11-21T08:38:34;9.20;99.90
31661;DHT22;18267;52.234;7.444;2023-11-21T08:41:04;9.20;99.90
31661;DHT22;18267;52.234;7.444;2023-11-21T08:43:34;9.20;99.90
31661;DHT22;18267;52.234;7.444;2023-11-21T08:45:59;9.30;99.90
31661;DHT22;18267;52.234;7.444;2023-11-21T08:48:25;9.20;99.90
31661;DHT22;18267;52.234;7.444;2023-11-21T08:50:50;9.20;99.90
31661;DHT22;18267;52.234;7.444;2023-11-21T08:53:16;9.30;99.90
31661;DHT22;18267;52.234;7.444;2023-11-21T08:55:42;9.30;99.90
31661;DHT22;18267;52.234;7.444;2023-11-21T08:58:09;9.30;99.90
31661;DHT22;18267;52.234;7.444;2023-11-21T09:00:35;9.30;99.90
31661;DHT22;18267;52.234;7.444;2023-11-21T09:03:03;9.30;99.90
31661;DHT22;18267;52.234;7.444;2023-11-21T09:05:34;9.40;99.90
31661;DHT22;18267;52.234;7.444;2023-11-21T09:07:59;9.30;99.90
31661;DHT22;18267;52.234;7.444;2023-11-21T09:10:25;9.40;99.90
31661;DHT22;18267;52.234;7.444;2023-11-21T09:12:51;9.50;99.90
31661;DHT22;18267;52.234;7.444;2023-11-21T09:15:17;9.40;99.90
31661;DHT22;18267;52.234;7.444;2023-11-21T09:17:42;9.50;99.90
31661;DHT22;18267;52.234;7.444;2023-11-21T09:20:10;9.50;99.90
31661;DHT22;18267;52.234;7.444;2023-11-21T09:22:35;9.50;99.90
31661;DHT22;18267;52.234;7.444;2023-11-21T09:25:02;9.50;99.90
31661;DHT22;18267;52.234;7.444;2023-11-21T09:27:31;9.60;99.90
31661;DHT22;18267;52.234;7.444;2023-11-21T09:29:57;9.60;99.90
31661;DHT22;18267;52.234;7.444;2023-11-21T09:32:23;9.60;99.90
31661;DHT22;18267;52.234;7.444;2023-11-21T09:34:49;9.60;99.90
31661;DHT22;18267;52.234;7.444;2023-11-21T09:37:16;9.50;99.90
31661;DHT22;18267;52.234;7.444;2023-11-21T09:39:41;9.50;99.90
31661;DHT22;18267;52.234;7.444;2023-11-21T09:42:13;9.60;99.90
31661;DHT22;18267;52.234;7.444;2023-11-21T09:44:51;9.50;99.90
31661;DHT22;18267;52.234;7.444;2023-11-21T09:47:21;9.50;99.90
31661;DHT22;18267;52.234;7.444;2023-11-21T09:49:48;9.50;99.90
31661;DHT22;18267;52.234;7.444;2023-11-21T09:52:25;9.50;99.90
31661;DHT22;18267;52.234;7.444;2023-11-21T09:54:52;9.40;99.90
31661;DHT22;18267;52.234;7.444;2023-11-21T09:57:20;9.40;99.90
31661;DHT22;18267;52.234;7.444;2023-11-21T09:59:47;9.40;99.90
31661;DHT22;18267;52.234;7.444;2023-11-21T10:02:17;9.40;99.90
31661;DHT22;18267;52.234;7.444;2023-11-21T10:04:44;9.60;99.90
31661;DHT22;18267;52.234;7.444;2023-11-21T10:07:12;9.70;99.90
31661;DHT22;18267;52.234;7.444;2023-11-21T10:09:40;9.80;99.90
31661;DHT22;18267;52.234;7.444;2023-11-21T10:12:07;9.80;99.90
31661;DHT22;18267;52.234;7.444;2023-11-21T10:14:37;9.80;99.90
31661;DHT22;18267;52.234;7.444;2023-11-21T10:17:06;9.70;99.90
31661;DHT22;18267;52.234;7.444;2023-11-21T10:19:35;9.70;99.90
31661;DHT22;18267;52.234;7.444;2023-11-21T10:22:02;9.80;99.90
31661;DHT22;18267;52.234;7.444;2023-11-21T10:24:29;9.70;99.90
31661;DHT22;18267;52.234;7.444;2023-11-21T10:26:54;9.60;99.90
31661;DHT22;18267;52.234;7.444;2023-11-21T10:29:20;9.70;99.90
31661;DHT22;18267;52.234;7.444;2023-11-21T10:31:49;9.60;99.90
31661;DHT22;18267;52.234;7.444;2023-11-21T10:34:18;9.70;99.90
31661;DHT22;18267;52.234;7.444;2023-11-21T10:36:44;9.70;99.90
31661;DHT22;18267;52.234;7.444;2023-11-21T10:39:14;9.60;99.90
31661;DHT22;18267;52.234;7.444;2023-11-21T10:41:44;9.60;99.90
31661;DHT22;18267;52.234;7.444;2023-11-21T10:44:10;9.70;99.90
31661;DHT22;18267;52.234;7.444;2023-11-21T10:46:36;9.60;99.90
31661;DHT22;18267;52.234;7.444;2023-11-21T10:49:04;9.70;99.90
31661;DHT22;18267;52.234;7.444;2023-11-21T10:51:29;9.80;99.90
31661;DHT22;18267;52.234;7.444;2023-11-21T10:53:55;9.70;99.90
31661;DHT22;18267;52.234;7.444;2023-11-21T10:56:23;9.70;99.90
31661;DHT22;18267;52.234;7.444;2023-11-21T10:58:50;9.60;99.90
31661;DHT22;18267;52.234;7.444;2023-11-21T11:01:19;9.60;99.90
31661;DHT22;18267;52.234;7.444;2023-11-21T11:03:51;9.70;99.90
31661;DHT22;18267;52.234;7.444;2023-11-21T11:06:20;9.70;99.90
31661;DHT22;18267;52.234;7.444;2023-11-21T11:08:47;9.80;99.90
31661;DHT22;18267;52.234;7.444;2023-11-21T11:11:13;9.60;99.90
31661;DHT22;18267;52.234;7.444;2023-11-21T11:13:43;9.70;99.90
31661;DHT22;18267;52.234;7.444;2023-11-21T11:16:10;9.60;99.90
31661;DHT22;18267;52.234;7.444;2023-11-21T11:18:37;9.70;99.90
31661;DHT22;18267;52.234;7.444;2023-11-21T11:21:32;9.70;99.90
31661;DHT22;18267;52.234;7.444;2023-11-21T11:27:11;9.70;99.90
31661;DHT22;18267;52.234;7.444;2023-11-21T11:32:49;9.60;99.90
31661;DHT22;18267;52.234;7.444;2023-11-21T11:37:49;9.80;99.90
31661;DHT22;18267;52.234;7.444;2023-11-21T11:40:15;9.80;99.90
31661;DHT22;18267;52.234;7.444;2023-11-21T11:42:56;9.90;99.90
31661;DHT22;18267;52.234;7.444;2023-11-21T11:45:25;9.90;99.90
31661;DHT22;18267;52.234;7.444;2023-11-21T11:47:57;9.90;99.90
31661;DHT22;18267;52.234;7.444;2023-11-21T11:50:23;9.80;99.90
31661;DHT22;18267;52.234;7.444;2023-11-21T11:52:51;9.80;99.90
31661;DHT22;18267;52.234;7.444;2023-11-21T11:55:19;9.70;99.90
31661;DHT22;18267;52.234;7.444;2023-11-21T11:57:54;9.60;99.90
31661;DHT22;18267;52.234;7.444;2023-11-21T12:05:20;9.50;99.90
31661;DHT22;18267;52.234;7.444;2023-11-21T12:07:51;9.50;99.90
31661;DHT22;18267;52.234;7.444;2023-11-21T12:10:25;9.60;99.90
31661;DHT22;18267;52.234;7.444;2023-11-21T12:13:01;9.60;99.90
31661;DHT22;18267;52.234;7.444;2023-11-21T12:15:28;9.60;99.90
31661;DHT22;18267;52.234;7.444;2023-11-21T12:17:57;9.50;99.90
31661;DHT22;18267;52.234;7.444;2023-11-21T12:20:24;9.30;99.90
31661;DHT22;18267;52.234;7.444;2023-11-21T12:22:54;9.30;99.90
31661;DHT22;18267;52.234;7.444;2023-11-21T12:25:27;9.20;99.90
31661;DHT22;18267;52.234;7.444;2023-11-21T12:28:00;9.20;99.90
31661;DHT22;18267;52.234;7.444;2023-11-21T12:30:31;9.30;99.90
31661;DHT22;18267;52.234;7.444;2023-11-21T12:32:59;9.40;99.90
31661;DHT22;18267;52.234;7.444;2023-11-21T12:35:27;9.40;99.90
31661;DHT22;18267;52.234;7.444;2023-11-21T12:37:54;9.40;99.90
31661;DHT22;18267;52.234;7.444;2023-11-21T12:40:20;9.40;99.90
31661;DHT22;18267;52.234;7.444;2023-11-21T12:42:49;9.10;99.90
31661;DHT22;18267;52.234;7.444;2023-11-21T12:45:22;9.20;99.90
31661;DHT22;18267;52.234;7.444;2023-11-21T12:47:49;9.20;99.90
31661;DHT22;18267;52.234;7.444;2023-11-21T12:50:19;9.10;99.90
31661;DHT22;18267;52.234;7.444;2023-11-21T12:52:47;9.00;99.90
31661;DHT22;18267;52.234;7.444;2023-11-21T12:55:17;9.10;99.90
31661;DHT22;18267;52.234;7.444;2023-11-21T12:57:48;9.10;99.90
31661;DHT22;18267;52.234;7.444;2023-11-21T13:00:16;9.10;99.90
31661;DHT22;18267;52.234;7.444;2023-11-21T13:02:53;9.10;99.90
31661;DHT22;18267;52.234;7.444;2023-11-21T13:05:35;9.10;99.90
31661;DHT22;18267;52.234;7.444;2023-11-21T13:08:04;9.10;99.90
31661;DHT22;18267;52.234;7.444;2023-11-21T13:10:34;9.10;99.90
31661;DHT22;18267;52.234;7.444;2023-11-21T13:13:04;9.10;99.90
31661;DHT22;18267;52.234;7.444;2023-11-21T13:15:40;9.10;99.90
31661;DHT22;18267;52.234;7.444;2023-11-21T13:18:09;9.10;99.90
31661;DHT22;18267;52.234;7.444;2023-11-21T13:20:36;9.20;99.90
31661;DHT22;18267;52.234;7.444;2023-11-21T13:23:07;9.20;99.90
31661;DHT22;18267;52.234;7.444;2023-11-21T13:25:33;9.20;99.90
31661;DHT22;18267;52.234;7.444;2023-11-21T13:27:59;9.30;99.90
31661;DHT22;18267;52.234;7.444;2023-11-21T13:30:26;9.30;99.90
31661;DHT22;18267;52.234;7.444;2023-11-21T13:32:56;9.20;99.90
31661;DHT22;18267;52.234;7.444;2023-11-21T13:35:28;9.10;99.90
31661;DHT22;18267;52.234;7.444;2023-11-21T13:38:12;9.10;99.90
31661;DHT22;18267;52.234;7.444;2023-11-21T13:40:39;9.20;99.90
31661;DHT22;18267;52.234;7.444;2023-11-21T13:43:15;9.00;99.90
31661;DHT22;18267;52.234;7.444;2023-11-21T13:45:42;9.10;99.90
31661;DHT22;18267;52.234;7.444;2023-11-21T13:48:09;9.00;99.90
31661;DHT22;18267;52.234;7.444;2023-11-21T13:50:43;9.10;99.90
31661;DHT22;18267;52.234;7.444;2023-11-21T13:53:23;9.00;99.90
31661;DHT22;18267;52.234;7.444;2023-11-21T13:55:53;9.00;99.90
31661;DHT22;18267;52.234;7.444;2023-11-21T13:58:26;9.00;99.90
31661;DHT22;18267;52.234;7.444;2023-11-21T14:01:10;9.00;99.90
31661;DHT22;18267;52.234;7.444;2023-11-21T14:04:03;9.00;99.90
31661;DHT22;18267;52.234;7.444;2023-11-21T14:06:42;9.00;99.90
31661;DHT22;18267;52.234;7.444;2023-11-21T14:09:21;9.10;99.90
31661;DHT22;18267;52.234;7.444;2023-11-21T14:12:01;9.00;99.90
31661;DHT22;18267;52.234;7.444;2023-11-21T14:14:31;8.90;99.90
31661;DHT22;18267;52.234;7.444;2023-11-21T14:16:57;8.90;99.90
31661;DHT22;18267;52.234;7.444;2023-11-21T14:19:24;8.90;99.90
31661;DHT22;18267;52.234;7.444;2023-11-21T14:21:53;8.90;99.90
31661;DHT22;18267;52.234;7.444;2023-11-21T14:24:18;8.80;99.90
31661;DHT22;18267;52.234;7.444;2023-11-21T14:26:45;8.70;99.90
31661;DHT22;18267;52.234;7.444;2023-11-21T14:29:12;8.90;99.90
31661;DHT22;18267;52.234;7.444;2023-11-21T14:31:40;8.80;99.90
31661;DHT22;18267;52.234;7.444;2023-11-21T14:34:09;8.70;99.90
31661;DHT22;18267;52.234;7.444;2023-11-21T14:36:37;8.70;99.90
31661;DHT22;18267;52.234;7.444;2023-11-21T14:39:04;8.70;99.90
31661;DHT22;18267;52.234;7.444;2023-11-21T14:41:34;8.70;99.90
31661;DHT22;18267;52.234;7.444;2023-11-21T14:44:02;8.60;99.90
31661;DHT22;18267;52.234;7.444;2023-11-21T14:46:33;8.70;99.90
31661;DHT22;18267;52.234;7.444;2023-11-21T14:49:00;8.60;99.90
31661;DHT22;18267;52.234;7.444;2023-11-21T14:51:44;8.60;99.90
31661;DHT22;18267;52.234;7.444;2023-11-21T14:54:30;8.70;99.90
31661;DHT22;18267;52.234;7.444;2023-11-21T14:57:09;8.70;99.90
31661;DHT22;18267;52.234;7.444;2023-11-21T14:59:42;8.60;99.90
31661;DHT22;18267;52.234;7.444;2023-11-21T15:02:08;8.70;99.90
31661;DHT22;18267;52.234;7.444;2023-11-21T15:04:43;8.70;99.90
31661;DHT22;18267;52.234;7.444;2023-11-21T15:07:12;8.60;99.90
31661;DHT22;18267;52.234;7.444;2023-11-21T15:09:38;8.60;99.90
31661;DHT22;18267;52.234;7.444;2023-11-21T15:12:08;8.70;99.90
31661;DHT22;18267;52.234;7.444;2023-11-21T15:14:42;8.60;99.90
31661;DHT22;18267;52.234;7.444;2023-11-21T15:17:09;8.60;99.90
31661;DHT22;18267;52.234;7.444;2023-11-21T15:19:34;8.50;99.90
31661;DHT22;18267;52.234;7.444;2023-11-21T15:22:01;8.50;99.90
31661;DHT22;18267;52.234;7.444;2023-11-21T15:24:27;8.50;99.90
31661;DHT22;18267;52.234;7.444;2023-11-21T15:26:53;8.40;99.90
31661;DHT22;18267;52.234;7.444;2023-11-21T15:29:18;8.50;99.90
31661;DHT22;18267;52.234;7.444;2023-11-21T15:31:46;8.50;99.90
31661;DHT22;18267;52.234;7.444;2023-11-21T15:34:14;8.50;99.90
31661;DHT22;18267;52.234;7.444;2023-11-21T15:36:40;8.50;99.90
31661;DHT22;18267;52.234;7.444;2023-11-21T15:39:06;8.50;99.90
31661;DHT22;18267;52.234;7.444;2023-11-21T15:41:32;8.50;99.90
31661;DHT22;18267;52.234;7.444;2023-11-21T15:43:58;8.40;99.90
31661;DHT22;18267;52.234;7.444;2023-11-21T15:46:23;8.40;99.90
31661;DHT22;18267;52.234;7.444;2023-11-21T15:48:49;8.40;99.90
31661;DHT22;18267;52.234;7.444;2023-11-21T15:51:18;8.40;99.90
31661;DHT22;18267;52.234;7.444;2023-11-21T15:53:44;8.30;99.90
31661;DHT22;18267;52.234;7.444;2023-11-21T15:56:10;8.30;99.90
31661;DHT22;18267;52.234;7.444;2023-11-21T15:58:41;8.40;99.90
31661;DHT22;18267;52.234;7.444;2023-11-21T16:01:08;8.40;99.90